Time;durP1;ratioP1;P1;durP2;ratioP2;P2;SDS_P1;SDS_P2;PMS_P1;PMS_P2;Temp;Humidity;BMP_temperature;BMP_pressure;BME280_temperature;BME280_humidity;BME280_pressure;Samples;Min_cycle;Max_cycle;Signal;HPM_P1;HPM_P2
2022/05/22 00:01:32;;;;;;;8.20;2.75;;;;;;;9.97;95.66;101915.59;4976592;28;20046;-74
2022/05/22 00:03:58;;;;;;;7.30;2.80;;;;;;;9.94;96.12;101910.59;4980301;28;20033;-73
2022/05/22 00:06:23;;;;;;;4.05;2.50;;;;;;;9.91;96.83;101916.09;4977308;28;20038;-74
2022/05/22 00:08:48;;;;;;;9.25;2.80;;;;;;;9.92;96.00;101923.06;4981025;28;20018;-74
2022/05/22 00:11:14;;;;;;;9.25;2.85;;;;;;;9.91;94.78;101913.44;4958541;28;20038;-74
2022/05/22 00:13:39;;;;;;;12.85;3.05;;;;;;;9.91;95.16;101916.09;4978932;28;20035;-74
2022/05/22 00:18:49;;;;;;;7.72;2.80;;;;;;;9.88;95.27;101912.72;4989949;28;20621;-73
2022/05/22 00:21:14;;;;;;;7.03;2.22;;;;;;;9.87;94.83;101913.69;4988934;28;20054;-73
2022/05/22 00:23:43;;;;;;;7.15;3.10;;;;;;;9.84;94.67;101903.41;4978884;28;20403;-74
2022/05/22 00:26:08;;;;;;;4.90;2.38;;;;;;;9.73;94.76;101887.56;4986177;28;20142;-74
2022/05/22 00:28:33;;;;;;;10.18;2.63;;;;;;;9.65;94.14;101874.97;4988040;28;20117;-74
2022/05/22 00:30:59;;;;;;;7.85;2.30;;;;;;;9.73;94.73;101903.38;4956238;28;20086;-74
2022/05/22 00:33:26;;;;;;;5.28;1.75;;;;;;;9.65;94.05;101887.31;4978794;28;20494;-74
2022/05/22 00:35:52;;;;;;;6.03;2.47;;;;;;;9.70;93.89;101895.72;4982382;28;20382;-74
2022/05/22 00:38:17;;;;;;;10.52;3.03;;;;;;;9.53;94.88;101869.81;4983979;28;20055;-74
2022/05/22 00:40:43;;;;;;;7.22;3.05;;;;;;;9.59;96.42;101896.53;4983490;28;20026;-74
2022/05/22 00:43:26;;;;;;;5.70;2.60;;;;;;;9.40;95.82;101875.19;4984897;28;20118;-74
2022/05/22 00:45:52;;;;;;;6.00;2.58;;;;;;;9.55;94.72;101902.16;4985897;28;20038;-74
2022/05/22 00:48:17;;;;;;;5.50;2.75;;;;;;;9.44;94.74;101884.53;4980308;28;20027;-74
2022/05/22 00:50:42;;;;;;;6.97;2.42;;;;;;;9.55;94.95;101899.53;4977902;28;20121;-74
2022/05/22 00:53:08;;;;;;;5.95;2.53;;;;;;;9.45;94.85;101884.44;4966304;28;20510;-74
2022/05/22 00:55:34;;;;;;;23.60;4.35;;;;;;;9.38;93.88;101872.66;4944779;28;20067;-74
2022/05/22 00:58:05;;;;;;;7.25;2.90;;;;;;;9.52;94.90;101897.13;4986004;28;20026;-74
2022/05/22 01:00:34;;;;;;;8.63;2.67;;;;;;;9.48;96.02;101894.72;4975571;28;20478;-74
2022/05/22 01:05:50;;;;;;;7.75;3.53;;;;;;;9.39;98.02;101889.31;4986446;28;20136;-74
2022/05/22 01:08:15;;;;;;;9.25;3.85;;;;;;;9.30;99.36;101879.47;4971829;28;20500;-74
2022/05/22 01:10:44;;;;;;;6.82;3.10;;;;;;;9.29;99.61;101893.59;4979121;28;20470;-74
2022/05/22 01:13:12;;;;;;;5.88;2.83;;;;;;;9.14;100.00;101874.53;4983554;28;20049;-73
2022/05/22 01:15:38;;;;;;;5.47;3.35;;;;;;;9.04;100.00;101869.94;4971707;28;20033;-73
2022/05/22 01:18:03;;;;;;;9.75;3.33;;;;;;;9.07;100.00;101879.41;4979074;28;20039;-73
2022/05/22 01:20:29;;;;;;;6.50;3.67;;;;;;;9.02;100.00;101879.75;4960881;28;20038;-74
2022/05/22 01:22:54;;;;;;;12.38;3.92;;;;;;;9.01;100.00;101878.06;4985650;28;20390;-74
2022/05/22 01:25:20;;;;;;;8.80;3.78;;;;;;;8.97;100.00;101895.06;4979084;28;20466;-74
2022/05/22 01:27:46;;;;;;;10.68;3.55;;;;;;;8.96;100.00;101893.38;4981785;28;20058;-74
2022/05/22 01:30:17;;;;;;;8.38;3.97;;;;;;;8.92;100.00;101888.44;4981705;28;20536;-73
2022/05/22 01:32:45;;;;;;;11.25;3.90;;;;;;;8.83;100.00;101874.19;4972058;28;20113;-74
2022/05/22 01:35:15;;;;;;;5.78;2.83;;;;;;;9.02;100.00;101908.72;4979363;28;20460;-73
2022/05/22 01:37:41;;;;;;;6.10;3.42;;;;;;;8.98;100.00;101904.63;4982579;28;20073;-73
2022/05/22 01:40:09;;;;;;;8.07;3.70;;;;;;;9.03;99.71;101910.38;4986948;28;20045;-73
2022/05/22 01:42:35;;;;;;;8.68;3.72;;;;;;;9.03;100.00;101910.38;4971801;28;20027;-73
2022/05/22 01:45:00;;;;;;;14.90;4.60;;;;;;;9.02;100.00;101905.25;4980188;28;20124;-73
2022/05/22 01:47:26;;;;;;;8.15;3.85;;;;;;;8.94;100.00;101899.72;4960826;28;20113;-73
2022/05/22 01:49:52;;;;;;;7.88;4.05;;;;;;;8.93;100.00;101905.91;4984532;28;20061;-73
2022/05/22 01:52:17;;;;;;;12.75;4.80;;;;;;;8.94;100.00;101907.59;4969461;28;20065;-73
2022/05/22 01:54:43;;;;;;;13.18;4.22;;;;;;;8.96;100.00;101903.91;4985071;28;20552;-73
2022/05/22 01:57:08;;;;;;;12.00;4.57;;;;;;;8.95;100.00;101896.97;4980214;28;20034;-74
2022/05/22 01:59:33;;;;;;;9.85;4.22;;;;;;;8.72;100.00;101864.44;4980858;28;20030;-74
2022/05/22 02:01:59;;;;;;;8.23;3.97;;;;;;;8.85;100.00;101898.59;4985299;28;20034;-74
2022/05/22 02:04:24;;;;;;;9.02;4.07;;;;;;;8.82;100.00;101893.56;4982313;28;20433;-74
2022/05/22 02:09:34;;;;;;;10.07;4.00;;;;;;;8.73;100.00;101896.84;4982998;28;20070;-74
2022/05/22 02:12:00;;;;;;;12.40;4.40;;;;;;;8.65;100.00;101889.53;4983370;28;20044;-74
2022/05/22 02:14:25;;;;;;;9.07;4.90;;;;;;;8.64;100.00;101901.88;4975804;28;20034;-74
2022/05/22 02:16:50;;;;;;;9.95;4.70;;;;;;;8.59;100.00;101893.44;4982560;28;20077;-74
2022/05/22 02:19:16;;;;;;;9.23;4.45;;;;;;;8.59;100.00;101901.34;4979995;28;20034;-74
2022/05/22 02:21:41;;;;;;;9.05;4.82;;;;;;;8.67;100.00;101903.44;4945804;28;20081;-74
2022/05/22 02:24:07;;;;;;;10.63;5.03;;;;;;;8.69;100.00;101901.53;4984636;28;20522;-74
2022/05/22 02:26:32;;;;;;;8.15;4.50;;;;;;;8.72;100.00;101900.47;4981256;28;20036;-73
2022/05/22 02:28:57;;;;;;;14.82;4.93;;;;;;;8.73;100.00;101891.59;4980812;28;20041;-73
2022/05/22 02:31:23;;;;;;;16.83;5.28;;;;;;;8.73;100.00;101891.59;4982167;28;20030;-73
2022/05/22 02:33:49;;;;;;;8.43;4.35;;;;;;;8.66;100.00;101880.69;4963744;28;20414;-73
2022/05/22 02:36:14;;;;;;;8.50;4.43;;;;;;;8.70;100.00;101892.66;4979942;28;20042;-73
2022/05/22 02:38:41;;;;;;;11.65;5.03;;;;;;;8.70;100.00;101889.19;4977531;28;20041;-73
2022/05/22 02:41:15;;;;;;;14.25;5.45;;;;;;;8.70;100.00;101883.94;4983126;28;20058;-73
2022/05/22 02:43:41;;;;;;;15.77;4.97;;;;;;;8.59;100.00;101859.22;4969189;28;20026;-73
2022/05/22 02:46:11;;;;;;;11.10;5.13;;;;;;;8.61;100.00;101878.38;4977827;28;20027;-73
2022/05/22 02:48:37;;;;;;;12.23;5.13;;;;;;;8.57;100.00;101866.41;4980982;28;20061;-73
2022/05/22 02:51:02;;;;;;;7.70;4.88;;;;;;;8.51;100.00;101866.00;4978565;28;20030;-73
2022/05/22 02:53:28;;;;;;;11.38;4.57;;;;;;;8.55;100.00;101878.81;4964244;28;20480;-73
2022/05/22 02:55:53;;;;;;;9.23;4.88;;;;;;;8.54;100.00;101877.16;4982890;28;20027;-73
2022/05/22 02:58:18;;;;;;;7.75;4.40;;;;;;;8.55;100.00;101875.34;4978946;28;20045;-73
2022/05/22 03:00:44;;;;;;;12.10;4.80;;;;;;;8.56;100.00;101872.63;4981477;28;20027;-73
2022/05/22 03:03:09;;;;;;;8.27;4.65;;;;;;;8.51;100.00;101853.69;4982041;28;20479;-73
2022/05/22 03:08:19;;;;;;;10.10;4.05;;;;;;;8.60;100.00;101866.19;4979045;28;20054;-73
2022/05/22 03:10:44;;;;;;;11.23;5.15;;;;;;;8.42;100.00;101825.41;4980640;28;20031;-73
2022/05/22 03:13:11;;;;;;;11.40;4.50;;;;;;;8.60;100.00;101858.28;4966230;28;20030;-73
2022/05/22 03:15:37;;;;;;;5.80;4.15;;;;;;;8.55;100.00;101857.78;4981643;28;20034;-73
2022/05/22 03:18:02;;;;;;;7.15;3.95;;;;;;;8.53;100.00;101849.16;4983298;28;20033;-73
2022/05/22 03:20:30;;;;;;;5.07;3.58;;;;;;;8.39;100.00;101829.09;4981989;28;20117;-72
2022/05/22 03:22:57;;;;;;;9.75;5.38;;;;;;;8.47;100.00;101840.88;4981566;28;20486;-72
2022/05/22 03:25:22;;;;;;;11.88;4.68;;;;;;;8.37;100.00;101823.09;4983949;28;20026;-73
2022/05/22 03:27:48;;;;;;;12.10;4.95;;;;;;;8.36;100.00;101820.56;4984670;28;20034;-73
2022/05/22 03:30:13;;;;;;;16.88;4.72;;;;;;;8.36;100.00;101825.84;4966772;28;20041;-73
2022/05/22 03:32:38;;;;;;;8.68;4.95;;;;;;;8.42;100.00;101836.78;4981062;28;20039;-72
2022/05/22 03:35:04;;;;;;;8.25;4.40;;;;;;;8.37;100.00;101830.16;4986026;28;20506;-73
2022/05/22 03:37:30;;;;;;;14.13;4.50;;;;;;;8.46;100.00;101842.66;4984825;28;20593;-73
2022/05/22 03:39:55;;;;;;;9.73;4.30;;;;;;;8.45;100.00;101838.38;4982865;28;20061;-73
2022/05/22 03:42:21;;;;;;;7.97;4.10;;;;;;;8.48;100.00;101835.50;4969408;28;20117;-73
2022/05/22 03:44:47;;;;;;;7.88;4.00;;;;;;;8.37;100.00;101812.56;4985821;28;20039;-73
2022/05/22 03:47:12;;;;;;;5.88;3.75;;;;;;;8.42;100.00;101820.16;4990660;28;20030;-73
2022/05/22 03:49:37;;;;;;;10.43;4.72;;;;;;;8.41;100.00;101819.31;4985272;28;20042;-73
2022/05/22 03:52:03;;;;;;;9.48;4.72;;;;;;;8.48;100.00;101824.16;4989017;28;20612;-73
2022/05/22 03:54:29;;;;;;;7.38;4.75;;;;;;;8.46;100.00;101831.31;4987271;28;20030;-73
2022/05/22 03:56:56;;;;;;;8.77;4.40;;;;;;;8.47;100.00;101831.22;4985337;28;20031;-73
2022/05/22 03:59:22;;;;;;;7.40;4.28;;;;;;;8.48;100.00;101830.25;4985713;28;20035;-73
2022/05/22 04:01:48;;;;;;;8.25;4.07;;;;;;;8.45;100.00;101838.38;4984461;28;20434;-72
2022/05/22 04:04:13;;;;;;;12.20;5.15;;;;;;;8.41;100.00;101836.91;4984627;28;20030;-73
2022/05/22 04:06:39;;;;;;;10.38;3.92;;;;;;;8.37;100.00;101835.41;4966728;28;20109;-73
2022/05/22 04:09:04;;;;;;;8.80;4.22;;;;;;;8.35;100.00;101829.44;4986113;28;20431;-73
2022/05/22 04:11:29;;;;;;;5.15;3.67;;;;;;;8.32;100.00;101827.88;5001114;28;20545;-74
2022/05/22 04:13:55;;;;;;;10.88;4.35;;;;;;;8.19;100.00;101809.50;4984481;28;20027;-73
2022/05/22 04:16:20;;;;;;;6.07;3.63;;;;;;;8.30;100.00;101818.41;4996992;28;20588;-73
2022/05/22 04:18:45;;;;;;;6.18;3.38;;;;;;;8.22;100.00;101809.25;4984993;28;20122;-73
2022/05/22 04:21:11;;;;;;;4.68;3.20;;;;;;;8.38;100.00;101831.81;4960695;28;20553;-73
2022/05/22 04:26:21;;;;;;;9.98;2.67;;;;;;;8.31;100.00;101833.22;4980352;28;20042;-73
2022/05/22 04:28:46;;;;;;;4.13;3.13;;;;;;;8.25;100.00;101829.25;4984804;28;20031;-73
2022/05/22 04:31:11;;;;;;;7.15;3.65;;;;;;;8.29;100.00;101829.88;4984194;28;20036;-73
2022/05/22 04:33:37;;;;;;;8.82;3.55;;;;;;;8.18;100.00;101805.19;4969941;28;20134;-72
2022/05/22 04:36:04;;;;;;;6.47;3.50;;;;;;;8.34;100.00;101828.59;4982760;28;20042;-73
2022/05/22 04:38:30;;;;;;;5.90;3.58;;;;;;;8.30;100.00;101818.41;4984813;28;20089;-73
2022/05/22 04:40:58;;;;;;;6.05;4.20;;;;;;;8.37;100.00;101822.28;4982962;28;20038;-73
2022/05/22 04:43:25;;;;;;;9.00;4.80;;;;;;;8.57;100.00;101834.81;4983782;28;20034;-74
2022/05/22 04:45:51;;;;;;;13.40;4.68;;;;;;;8.70;100.00;101831.31;4984039;28;20077;-72
2022/05/22 04:48:21;;;;;;;10.77;4.82;;;;;;;8.87;100.00;101836.16;4972497;28;20062;-73
2022/05/22 04:50:48;;;;;;;7.22;4.72;;;;;;;8.94;100.00;101823.34;4984240;28;20034;-73
2022/05/22 04:53:15;;;;;;;15.32;5.28;;;;;;;9.13;100.00;101836.00;4962406;28;20119;-73
2022/05/22 04:55:40;;;;;;;7.90;4.93;;;;;;;9.10;100.00;101829.13;4982681;28;20457;-73
2022/05/22 04:58:05;;;;;;;8.52;4.68;;;;;;;9.14;100.00;101832.38;5001146;28;20030;-72
2022/05/22 05:00:31;;;;;;;11.05;5.47;;;;;;;9.12;100.00;101831.66;4950856;28;20136;-73
2022/05/22 05:02:56;;;;;;;9.82;4.63;;;;;;;9.05;100.00;101826.84;4978359;28;20438;-73
2022/05/22 05:05:22;;;;;;;10.35;5.40;;;;;;;9.05;100.00;101826.84;4978006;28;20018;-73
2022/05/22 05:07:47;;;;;;;6.43;4.43;;;;;;;9.07;100.00;101824.09;4961122;28;20030;-73
2022/05/22 05:10:13;;;;;;;9.60;4.25;;;;;;;9.10;100.00;101809.88;4978533;28;20065;-73
2022/05/22 05:12:40;;;;;;;6.38;4.45;;;;;;;9.31;100.00;101815.28;4978388;28;20796;-73
2022/05/22 05:15:08;;;;;;;8.95;4.45;;;;;;;9.47;100.00;101818.41;4979827;28;20030;-73
2022/05/22 05:17:33;;;;;;;8.02;4.93;;;;;;;9.63;100.00;101813.63;4975250;28;20034;-73
2022/05/22 05:19:59;;;;;;;5.50;3.92;;;;;;;9.84;100.00;101811.13;4980881;28;20042;-73
2022/05/22 05:22:25;;;;;;;9.85;4.22;;;;;;;10.00;100.00;101815.16;4958950;28;20601;-74
2022/05/22 05:24:51;;;;;;;7.95;4.00;;;;;;;10.13;100.00;101810.59;4980594;28;20042;-73
2022/05/22 05:27:17;;;;;;;14.15;4.45;;;;;;;10.40;100.00;101806.69;4977563;28;20043;-73
2022/05/22 05:29:42;;;;;;;9.23;4.30;;;;;;;10.71;100.00;101812.91;4978772;28;20478;-73
2022/05/22 05:32:08;;;;;;;9.10;4.38;;;;;;;10.91;100.00;101808.66;4979643;28;20043;-73
2022/05/22 05:34:34;;;;;;;10.05;3.92;;;;;;;10.94;100.00;101800.44;4982457;28;20042;-74
2022/05/22 05:36:59;;;;;;;11.10;3.90;;;;;;;11.00;100.00;101815.78;4962221;28;20109;-74
2022/05/22 05:39:27;;;;;;;10.40;4.25;;;;;;;11.03;100.00;101802.31;4974291;28;20707;-74
2022/05/22 05:41:54;;;;;;;13.55;4.60;;;;;;;11.26;100.00;101810.09;4977250;28;20030;-74
2022/05/22 05:44:20;;;;;;;11.07;3.95;;;;;;;11.43;100.00;101806.84;4966831;28;20036;-74
2022/05/22 05:46:46;;;;;;;13.00;4.65;;;;;;;11.42;100.00;101799.06;4964124;28;20022;-74
2022/05/22 05:49:12;;;;;;;8.70;4.50;;;;;;;11.52;100.00;101790.19;4978798;28;20058;-74
2022/05/22 05:51:37;;;;;;;8.98;3.90;;;;;;;11.75;100.00;101808.50;4964564;28;20026;-74
2022/05/22 05:54:03;;;;;;;9.23;4.75;;;;;;;11.71;100.00;101804.44;4952466;28;20105;-74
2022/05/22 05:56:29;;;;;;;12.05;4.78;;;;;;;11.84;100.00;101798.91;4975973;28;20031;-74
2022/05/22 05:58:54;;;;;;;14.98;5.07;;;;;;;11.92;100.00;101807.88;4974146;28;20036;-74
2022/05/22 06:01:22;;;;;;;8.88;4.45;;;;;;;12.00;100.00;101801.06;4966279;28;20049;-75
2022/05/22 06:03:47;;;;;;;11.90;4.85;;;;;;;12.16;100.00;101813.78;4950636;28;20457;-74
2022/05/22 06:06:14;;;;;;;8.27;4.35;;;;;;;12.16;100.00;101805.84;4971010;28;20288;-74
2022/05/22 06:08:41;;;;;;;7.15;4.82;;;;;;;12.25;100.00;101812.97;4948459;28;20442;-74
2022/05/22 06:11:07;;;;;;;12.48;4.60;;;;;;;12.47;100.00;101811.88;4981963;28;20042;-74
2022/05/22 06:13:32;;;;;;;16.27;4.82;;;;;;;12.64;100.00;101811.19;4967105;28;20037;-74
2022/05/22 06:15:58;;;;;;;11.82;4.93;;;;;;;12.75;100.00;101808.38;4979945;28;20035;-74
2022/05/22 06:18:23;;;;;;;8.13;3.63;;;;;;;12.91;98.91;101804.31;4956205;28;20030;-74
2022/05/22 06:20:49;;;;;;;12.25;4.72;;;;;;;13.05;97.51;101809.19;4979448;28;20042;-75
2022/05/22 06:23:14;;;;;;;7.10;4.20;;;;;;;13.17;96.93;101802.75;4985562;28;20042;-74
2022/05/22 06:25:44;;;;;;;11.95;4.72;;;;;;;13.33;95.07;101793.38;4983221;28;20026;-73
2022/05/22 06:28:14;;;;;;;11.90;5.03;;;;;;;13.75;94.60;101793.75;4981338;28;20054;-73
2022/05/22 06:30:40;;;;;;;12.52;4.78;;;;;;;14.25;92.09;101789.81;4980656;28;20125;-74
2022/05/22 06:33:10;;;;;;;10.15;4.00;;;;;;;14.78;88.49;101794.28;4951217;28;20039;-73
2022/05/22 06:35:39;;;;;;;6.90;3.65;;;;;;;15.09;86.43;101791.19;4981659;28;20500;-73
2022/05/22 06:38:06;;;;;;;11.23;4.38;;;;;;;15.81;84.71;101796.22;4980823;28;20062;-73
2022/05/22 06:40:31;;;;;;;9.05;3.97;;;;;;;16.31;80.09;101800.66;4980053;28;20130;-73
2022/05/22 06:42:59;;;;;;;8.95;3.53;;;;;;;16.91;79.30;101804.03;4979210;28;20470;-73
2022/05/22 06:45:25;;;;;;;6.30;3.17;;;;;;;17.72;76.17;101804.81;4967021;28;20429;-74
2022/05/22 06:47:51;;;;;;;9.60;3.15;;;;;;;18.20;73.11;101805.56;4979582;28;20119;-74
2022/05/22 06:50:22;;;;;;;11.55;4.47;;;;;;;18.41;70.15;101803.09;4983911;28;20046;-74
2022/05/22 06:52:47;;;;;;;7.88;3.22;;;;;;;18.16;68.63;101788.22;4981240;28;20101;-74
2022/05/22 06:55:13;;;;;;;13.45;3.92;;;;;;;18.44;70.10;101804.56;4979699;28;21184;-74
2022/05/22 06:57:40;;;;;;;6.50;2.65;;;;;;;18.81;68.11;101793.09;4980301;28;20037;-74
2022/05/22 07:00:14;;;;;;;9.63;3.22;;;;;;;18.81;68.15;101803.78;4974996;28;20367;-74
2022/05/22 07:02:40;;;;;;;10.15;3.30;;;;;;;19.41;67.94;101798.50;4986033;28;20094;-74
2022/05/22 07:05:08;;;;;;;10.38;3.50;;;;;;;19.65;67.55;101792.84;4988701;28;20120;-74
2022/05/22 07:07:34;;;;;;;7.35;3.05;;;;;;;19.83;64.46;101800.50;4980110;28;20031;-74
2022/05/22 07:09:59;;;;;;;8.30;2.97;;;;;;;19.80;63.73;101795.53;4972172;28;20057;-74
2022/05/22 07:12:25;;;;;;;9.18;3.10;;;;;;;19.61;62.61;101810.31;4989169;28;20030;-72
2022/05/22 07:14:56;;;;;;;8.15;2.53;;;;;;;19.41;63.63;101817.25;4949187;28;20509;-73
2022/05/22 07:17:24;;;;;;;10.75;2.78;;;;;;;19.90;62.51;101809.47;4964466;28;20446;-74
2022/05/22 07:19:50;;;;;;;9.30;3.17;;;;;;;20.09;63.27;101775.03;4970472;28;20022;-73
2022/05/22 07:22:16;;;;;;;4.93;2.10;;;;;;;21.37;63.24;101816.13;4990041;28;20367;-74
2022/05/22 07:24:41;;;;;;;5.40;2.50;;;;;;;21.29;57.47;101800.97;4990927;28;20015;-74
2022/05/22 07:27:07;;;;;;;8.30;3.08;;;;;;;21.42;59.17;101820.94;4990416;28;20038;-74
2022/05/22 07:29:32;;;;;;;7.70;2.38;;;;;;;22.11;57.46;101812.72;4990146;28;20026;-73
2022/05/22 07:31:58;;;;;;;8.95;2.17;;;;;;;21.82;55.26;101810.34;4951170;28;20077;-74
2022/05/22 07:34:26;;;;;;;5.97;2.53;;;;;;;21.19;57.81;101797.00;5006725;28;20072;-74
2022/05/22 07:36:57;;;;;;;6.30;2.13;;;;;;;22.29;56.46;101814.03;4983788;28;20065;-73
2022/05/22 07:39:23;;;;;;;8.30;2.05;;;;;;;22.93;55.86;101810.75;4988042;28;20097;-73
2022/05/22 07:41:48;;;;;;;6.80;2.25;;;;;;;23.51;52.68;101793.03;4973682;28;20038;-74
2022/05/22 07:44:13;;;;;;;7.47;2.10;;;;;;;23.44;50.41;101808.41;4990542;28;20034;-74
2022/05/22 07:46:39;;;;;;;4.70;1.55;;;;;;;22.90;52.76;101797.69;4988070;28;20073;-74
2022/05/22 07:49:04;;;;;;;6.40;1.63;;;;;;;23.51;54.43;101810.00;4989849;28;20034;-74
2022/05/22 07:51:29;;;;;;;5.50;1.55;;;;;;;24.29;50.01;101817.13;4971837;28;20030;-74
2022/05/22 07:53:55;;;;;;;8.75;2.13;;;;;;;23.38;49.51;101808.19;4988599;28;20117;-74
2022/05/22 07:56:22;;;;;;;7.00;2.35;;;;;;;21.68;52.03;101809.47;4987570;28;20067;-74
2022/05/22 07:58:49;;;;;;;7.88;2.08;;;;;;;21.70;53.50;101797.50;4986636;28;20053;-74
2022/05/22 08:01:14;;;;;;;8.18;2.50;;;;;;;23.05;52.08;101796.69;4984461;28;20026;-74
2022/05/22 08:03:39;;;;;;;5.85;2.00;;;;;;;23.95;52.77;101796.78;4947142;28;20065;-74
2022/05/22 08:06:05;;;;;;;4.85;1.65;;;;;;;25.37;47.96;101802.50;4980827;28;20058;-74
2022/05/22 08:08:31;;;;;;;5.75;1.73;;;;;;;25.56;47.32;101805.19;4979761;28;20026;-74
2022/05/22 08:10:58;;;;;;;6.03;1.55;;;;;;;26.56;47.20;101803.81;4977235;28;20104;-74
2022/05/22 08:13:23;;;;;;;6.35;1.77;;;;;;;26.50;44.90;101805.56;4956854;28;20029;-74
2022/05/22 08:15:48;;;;;;;5.40;1.65;;;;;;;27.10;45.29;101804.53;4983443;28;20035;-74
2022/05/22 08:18:14;;;;;;;4.65;1.70;;;;;;;27.92;42.85;101810.81;4984898;28;20165;-73
2022/05/22 08:20:42;;;;;;;7.40;1.63;;;;;;;28.06;42.51;101812.19;4976765;28;20062;-73
2022/05/22 08:23:11;;;;;;;7.07;1.55;;;;;;;27.01;43.89;101793.22;4982553;28;20122;-74
2022/05/22 08:25:37;;;;;;;7.57;2.13;;;;;;;25.62;46.98;101793.47;4981309;28;20030;-74
2022/05/22 08:28:04;;;;;;;7.47;1.80;;;;;;;25.19;46.68;101800.59;4952110;28;20486;-73
2022/05/22 08:30:30;;;;;;;6.82;2.05;;;;;;;23.96;48.64;101791.19;4985938;28;20027;-74
2022/05/22 08:32:56;;;;;;;6.78;1.75;;;;;;;23.38;51.26;101792.03;4983516;28;20093;-74
2022/05/22 08:35:25;;;;;;;5.82;1.90;;;;;;;24.81;48.96;101789.97;4968580;28;20073;-74
2022/05/22 08:37:51;;;;;;;6.93;1.50;;;;;;;25.57;49.08;101791.44;4982418;28;20426;-74
2022/05/22 08:40:19;;;;;;;7.25;1.70;;;;;;;26.89;47.64;101786.97;4980075;28;20022;-73
2022/05/22 08:43:06;;;;;;;4.85;1.67;;;;;;;27.29;45.72;101786.28;4985158;28;20026;-74
2022/05/22 08:45:56;;;;;;;8.02;1.67;;;;;;;26.87;45.29;101794.50;4981917;28;20395;-73
2022/05/22 08:48:30;;;;;;;7.40;1.88;;;;;;;27.58;45.50;101792.53;4969464;28;20072;-73
2022/05/22 08:50:58;;;;;;;4.15;1.13;;;;;;;28.07;43.97;101786.72;4970569;28;20486;-73
2022/05/22 08:53:40;;;;;;;4.35;1.13;;;;;;;29.61;41.51;101797.94;4982221;28;20077;-73
2022/05/22 08:59:07;;;;;;;5.95;1.60;;;;;;;30.41;41.38;101797.41;4981211;28;20069;-74
2022/05/22 09:01:44;;;;;;;4.93;1.42;;;;;;;31.27;39.74;101791.69;4978880;28;20037;-74
2022/05/22 09:04:12;;;;;;;8.90;1.48;;;;;;;32.01;37.88;101791.63;4982381;28;20031;-74
2022/05/22 09:07:10;;;;;;;6.75;1.70;;;;;;;31.97;37.04;101783.16;4981268;28;20058;-74
2022/05/22 09:09:39;;;;;;;7.43;1.60;;;;;;;32.09;37.38;101788.38;4974297;28;20038;-74
2022/05/22 09:12:26;;;;;;;4.80;1.58;;;;;;;31.61;36.70;101787.72;4986537;28;20386;-74
2022/05/22 09:15:14;;;;;;;5.75;1.73;;;;;;;31.29;38.98;101785.94;4978647;28;20117;-74
2022/05/22 09:18:24;;;;;;;9.55;1.60;;;;;;;30.64;38.21;101777.13;4962839;28;20030;-74
2022/05/22 09:20:55;;;;;;;5.57;1.48;;;;;;;31.16;38.92;101759.97;4972355;28;20084;-73
2022/05/22 09:23:40;;;;;;;6.53;1.52;;;;;;;32.38;37.42;101775.81;4978824;28;20555;-73
2022/05/22 09:26:11;;;;;;;5.50;1.33;;;;;;;33.04;37.21;101775.97;4981878;28;20030;-73
2022/05/22 09:29:07;;;;;;;3.58;1.50;;;;;;;33.07;36.23;101761.75;4982223;28;20053;-73
2022/05/22 09:31:48;;;;;;;5.45;1.63;;;;;;;34.09;36.56;101771.28;4985040;28;20038;-73
2022/05/22 09:34:43;;;;;;;5.47;1.80;;;;;;;32.52;37.37;101764.31;4965867;28;20475;-74
2022/05/22 09:37:24;;;;;;;4.30;1.48;;;;;;;31.53;39.30;101765.34;4984253;28;20169;-74
2022/05/22 09:40:05;;;;;;;5.80;1.55;;;;;;;30.20;40.29;101763.69;4970506;28;20037;-74
2022/05/22 09:42:47;;;;;;;7.18;1.98;;;;;;;28.89;42.23;101766.28;4984848;28;20034;-74
2022/05/22 09:45:39;;;;;;;5.88;1.65;;;;;;;28.25;43.87;101762.03;4958873;28;20121;-73
2022/05/22 09:48:20;;;;;;;8.00;1.95;;;;;;;27.45;43.48;101746.72;4982446;28;20026;-73
2022/05/22 09:51:04;;;;;;;4.05;1.67;;;;;;;26.51;43.89;101744.13;4959463;28;20029;-72
2022/05/22 09:53:38;;;;;;;7.68;1.58;;;;;;;25.45;46.69;101750.00;4975990;28;20081;-70
2022/05/22 09:56:14;;;;;;;4.88;1.50;;;;;;;25.29;47.96;101743.38;4977246;28;20645;-71
2022/05/22 09:59:07;;;;;;;7.45;1.70;;;;;;;25.16;47.48;101740.78;4985767;28;20098;-71
2022/05/22 10:01:47;;;;;;;4.82;1.10;;;;;;;26.17;46.86;101741.94;4980716;28;20109;-71
2022/05/22 10:04:38;;;;;;;4.13;1.60;;;;;;;27.88;43.89;101713.66;4974698;28;20027;-72
2022/05/22 10:07:32;;;;;;;5.60;1.40;;;;;;;29.22;40.72;101732.75;4981198;28;20022;-71
2022/05/22 10:09:57;;;;;;;6.97;1.50;;;;;;;29.73;42.25;101732.53;4976894;28;20170;-72
2022/05/22 10:12:37;;;;;;;4.80;1.20;;;;;;;29.83;40.24;101712.75;4982214;28;20105;-71
2022/05/22 10:15:26;;;;;;;7.43;1.70;;;;;;;30.02;41.01;101724.09;4978950;28;20701;-72
2022/05/22 10:18:01;;;;;;;3.92;1.45;;;;;;;29.82;38.86;101713.84;4973227;28;20101;-72
2022/05/22 10:20:49;;;;;;;4.47;1.30;;;;;;;29.48;40.37;101720.28;4979040;28;20026;-72
2022/05/22 10:23:59;;;;;;;5.95;1.30;;;;;;;30.03;40.48;101710.22;4973626;28;20061;-71
2022/05/22 10:26:40;;;;;;;;;;;;;;;28.99;40.42;101703.94;4962587;28;20042;-71
2022/05/22 10:29:11;;;;;;;;;;;;;;;29.99;39.57;101703.66;4975269;28;20032;-71
2022/05/22 10:31:54;;;;;;;2.90;1.13;;;;;;;30.15;38.37;101704.59;4981534;28;19971;-71
2022/05/22 10:34:48;;;;;;;6.43;1.25;;;;;;;30.19;38.76;101703.00;4980632;28;20093;-71
2022/05/22 10:37:27;;;;;;;3.90;1.48;;;;;;;31.00;37.29;101690.94;4971068;28;20073;-72
2022/05/22 10:39:53;;;;;;;4.15;0.90;;;;;;;31.71;36.98;101670.41;4972791;28;20023;-71
2022/05/22 10:45:35;;;;;;;1.80;0.90;;;;;;;32.56;37.02;101680.72;4970079;28;20089;-72
2022/05/22 10:48:19;;;;;;;4.88;1.40;;;;;;;30.24;36.25;101661.38;4976401;28;20031;-72
2022/05/22 10:51:09;;;;;;;4.85;1.30;;;;;;;29.40;38.79;101670.97;4979589;28;20041;-71
2022/05/22 10:53:39;;;;;;;4.00;1.33;;;;;;;29.69;38.25;101677.00;4983382;28;20034;-72
2022/05/22 10:56:14;;;;;;;4.03;1.42;;;;;;;30.11;38.90;101673.53;4972505;28;20328;-72
2022/05/22 10:58:51;;;;;;;2.63;1.05;;;;;;;30.19;39.31;101667.59;4971546;28;20034;-71
2022/05/22 11:01:20;;;;;;;4.53;1.10;;;;;;;29.99;38.96;101664.75;4958782;28;20023;-71
2022/05/22 11:03:45;;;;;;;4.75;1.23;;;;;;;30.41;38.84;101666.69;4973198;28;20383;-72
2022/05/22 11:06:21;;;;;;;6.28;1.10;;;;;;;30.90;37.56;101669.09;4970025;28;20379;-72
2022/05/22 11:08:50;;;;;;;6.55;1.10;;;;;;;31.50;37.25;101655.94;4980318;28;20449;-72
2022/05/22 11:11:23;;;;;;;2.40;0.80;;;;;;;32.98;35.61;101676.72;4976405;28;20033;-71
2022/05/22 11:13:50;;;;;;;3.03;0.73;;;;;;;34.05;33.58;101668.88;4976905;28;20117;-72
2022/05/22 11:16:19;;;;;;;3.85;0.88;;;;;;;32.81;32.71;101663.41;4970653;28;20105;-72
2022/05/22 11:18:45;;;;;;;3.08;0.93;;;;;;;30.04;37.76;101653.88;4971515;28;20037;-72
2022/05/22 11:21:28;;;;;;;3.60;0.85;;;;;;;30.84;37.51;101664.72;4976487;28;20041;-71
2022/05/22 11:24:12;;;;;;;4.65;1.33;;;;;;;30.53;37.75;101665.38;4973231;28;20441;-72
2022/05/22 11:26:43;;;;;;;5.13;1.33;;;;;;;30.36;38.77;101662.03;4971415;28;20033;-72
2022/05/22 11:29:20;;;;;;;4.40;1.05;;;;;;;30.24;39.53;101664.09;4970375;28;20490;-72
2022/05/22 11:32:20;;;;;;;5.82;1.55;;;;;;;29.77;37.58;101662.94;4978988;28;20034;-72
2022/05/22 11:35:04;;;;;;;6.45;1.30;;;;;;;28.33;39.20;101648.69;4983000;28;20023;-72
2022/05/22 11:37:46;;;;;;;3.47;1.20;;;;;;;28.93;38.66;101632.38;4972276;28;20047;-72
2022/05/22 11:40:38;;;;;;;2.95;1.00;;;;;;;30.34;39.82;101639.69;4972664;28;20030;-72
2022/05/22 11:43:51;;;;;;;4.85;1.15;;;;;;;30.08;37.07;101630.50;4962400;28;20030;-72
2022/05/22 11:46:35;;;;;;;5.65;1.20;;;;;;;29.57;38.91;101624.63;4916744;29;20053;-72
2022/05/22 11:49:19;;;;;;;4.53;1.20;;;;;;;30.83;37.39;101628.44;4919891;29;20102;-72
2022/05/22 11:51:54;;;;;;;3.78;1.10;;;;;;;30.56;38.04;101625.91;4919989;29;20051;-72
2022/05/22 11:54:50;;;;;;;3.38;1.10;;;;;;;30.04;38.27;101613.06;4915222;29;20571;-72
2022/05/22 11:57:29;;;;;;;4.80;1.25;;;;;;;28.20;43.02;101614.56;4909402;29;20128;-72